sensor_id;sensor_type;location;lat;lon;timestamp;P1;durP1;ratioP1;P2;durP2;ratioP2
12900;SDS011;6518;50.930;5.344;2023-10-08T00:01:17;6.53;;;4.35;;
12900;SDS011;6518;50.930;5.344;2023-10-08T00:03:45;6.00;;;3.90;;
12900;SDS011;6518;50.930;5.344;2023-10-08T00:06:15;6.18;;;4.00;;
12900;SDS011;6518;50.930;5.344;2023-10-08T00:08:44;9.65;;;4.05;;
12900;SDS011;6518;50.930;5.344;2023-10-08T00:11:12;9.77;;;3.95;;
12900;SDS011;6518;50.930;5.344;2023-10-08T00:13:41;6.85;;;3.70;;
12900;SDS011;6518;50.930;5.344;2023-10-08T00:16:09;7.60;;;4.00;;
12900;SDS011;6518;50.930;5.344;2023-10-08T00:18:40;7.13;;;4.00;;
12900;SDS011;6518;50.930;5.344;2023-10-08T00:21:13;5.85;;;3.60;;
12900;SDS011;6518;50.930;5.344;2023-10-08T00:23:42;5.35;;;3.83;;
12900;SDS011;6518;50.930;5.344;2023-10-08T00:26:17;6.03;;;3.75;;
12900;SDS011;6518;50.930;5.344;2023-10-08T00:28:53;6.97;;;3.85;;
12900;SDS011;6518;50.930;5.344;2023-10-08T00:31:21;7.88;;;3.30;;
12900;SDS011;6518;50.930;5.344;2023-10-08T00:33:51;4.82;;;3.60;;
12900;SDS011;6518;50.930;5.344;2023-10-08T00:36:20;6.60;;;3.35;;
12900;SDS011;6518;50.930;5.344;2023-10-08T00:38:49;9.02;;;3.80;;
12900;SDS011;6518;50.930;5.344;2023-10-08T00:41:19;5.68;;;3.60;;
12900;SDS011;6518;50.930;5.344;2023-10-08T00:43:47;7.75;;;3.67;;
12900;SDS011;6518;50.930;5.344;2023-10-08T00:46:16;5.40;;;3.80;;
12900;SDS011;6518;50.930;5.344;2023-10-08T00:48:49;6.63;;;3.60;;
12900;SDS011;6518;50.930;5.344;2023-10-08T00:51:21;5.85;;;4.00;;
12900;SDS011;6518;50.930;5.344;2023-10-08T00:53:59;6.35;;;3.47;;
12900;SDS011;6518;50.930;5.344;2023-10-08T00:56:30;9.07;;;3.65;;
12900;SDS011;6518;50.930;5.344;2023-10-08T00:59:15;7.85;;;3.53;;
12900;SDS011;6518;50.930;5.344;2023-10-08T01:01:46;5.63;;;3.38;;
12900;SDS011;6518;50.930;5.344;2023-10-08T01:04:16;6.57;;;3.63;;
12900;SDS011;6518;50.930;5.344;2023-10-08T01:06:48;7.07;;;3.90;;
12900;SDS011;6518;50.930;5.344;2023-10-08T01:09:20;7.78;;;3.88;;
12900;SDS011;6518;50.930;5.344;2023-10-08T01:12:06;6.72;;;3.40;;
12900;SDS011;6518;50.930;5.344;2023-10-08T01:14:37;7.68;;;3.90;;
12900;SDS011;6518;50.930;5.344;2023-10-08T01:17:07;6.93;;;3.83;;
12900;SDS011;6518;50.930;5.344;2023-10-08T01:19:34;5.22;;;3.30;;
12900;SDS011;6518;50.930;5.344;2023-10-08T01:22:07;7.75;;;3.72;;
12900;SDS011;6518;50.930;5.344;2023-10-08T01:24:41;8.93;;;3.97;;
12900;SDS011;6518;50.930;5.344;2023-10-08T01:27:09;4.20;;;2.95;;
12900;SDS011;6518;50.930;5.344;2023-10-08T01:29:37;9.57;;;3.85;;
12900;SDS011;6518;50.930;5.344;2023-10-08T01:32:05;8.82;;;3.58;;
12900;SDS011;6518;50.930;5.344;2023-10-08T01:34:36;6.57;;;3.45;;
12900;SDS011;6518;50.930;5.344;2023-10-08T01:37:04;6.68;;;3.58;;
12900;SDS011;6518;50.930;5.344;2023-10-08T01:39:36;5.07;;;3.53;;
12900;SDS011;6518;50.930;5.344;2023-10-08T01:42:05;6.57;;;3.85;;
12900;SDS011;6518;50.930;5.344;2023-10-08T01:44:32;5.47;;;3.55;;
12900;SDS011;6518;50.930;5.344;2023-10-08T01:47:00;9.43;;;3.95;;
12900;SDS011;6518;50.930;5.344;2023-10-08T01:49:29;7.00;;;3.97;;
12900;SDS011;6518;50.930;5.344;2023-10-08T01:51:58;6.25;;;3.75;;
12900;SDS011;6518;50.930;5.344;2023-10-08T01:54:32;8.07;;;3.90;;
12900;SDS011;6518;50.930;5.344;2023-10-08T01:57:02;5.78;;;3.95;;
12900;SDS011;6518;50.930;5.344;2023-10-08T01:59:30;7.80;;;3.70;;
12900;SDS011;6518;50.930;5.344;2023-10-08T02:01:58;7.22;;;3.63;;
12900;SDS011;6518;50.930;5.344;2023-10-08T02:04:25;7.30;;;3.72;;
12900;SDS011;6518;50.930;5.344;2023-10-08T02:06:53;9.95;;;4.47;;
12900;SDS011;6518;50.930;5.344;2023-10-08T02:09:20;6.47;;;3.67;;
12900;SDS011;6518;50.930;5.344;2023-10-08T02:11:51;4.82;;;3.40;;
12900;SDS011;6518;50.930;5.344;2023-10-08T02:14:20;6.47;;;3.78;;
12900;SDS011;6518;50.930;5.344;2023-10-08T02:16:48;6.55;;;4.10;;
12900;SDS011;6518;50.930;5.344;2023-10-08T02:19:17;4.90;;;3.63;;
12900;SDS011;6518;50.930;5.344;2023-10-08T02:21:52;9.40;;;3.83;;
12900;SDS011;6518;50.930;5.344;2023-10-08T02:24:19;4.38;;;3.38;;
12900;SDS011;6518;50.930;5.344;2023-10-08T02:26:49;6.10;;;3.80;;
12900;SDS011;6518;50.930;5.344;2023-10-08T02:29:17;9.63;;;3.78;;
12900;SDS011;6518;50.930;5.344;2023-10-08T02:31:46;8.18;;;3.35;;
12900;SDS011;6518;50.930;5.344;2023-10-08T02:34:13;5.65;;;3.70;;
12900;SDS011;6518;50.930;5.344;2023-10-08T02:36:40;6.93;;;3.70;;
12900;SDS011;6518;50.930;5.344;2023-10-08T02:39:07;5.90;;;3.80;;
12900;SDS011;6518;50.930;5.344;2023-10-08T02:41:41;7.07;;;3.75;;
12900;SDS011;6518;50.930;5.344;2023-10-08T02:44:11;6.18;;;3.92;;
12900;SDS011;6518;50.930;5.344;2023-10-08T02:49:08;5.82;;;3.42;;
12900;SDS011;6518;50.930;5.344;2023-10-08T02:51:38;7.70;;;3.60;;
12900;SDS011;6518;50.930;5.344;2023-10-08T02:54:06;5.10;;;3.50;;
12900;SDS011;6518;50.930;5.344;2023-10-08T02:56:42;6.45;;;3.55;;
12900;SDS011;6518;50.930;5.344;2023-10-08T02:59:11;4.63;;;2.90;;
12900;SDS011;6518;50.930;5.344;2023-10-08T03:01:39;5.78;;;3.45;;
12900;SDS011;6518;50.930;5.344;2023-10-08T03:04:06;6.57;;;3.65;;
12900;SDS011;6518;50.930;5.344;2023-10-08T03:06:43;6.60;;;3.83;;
12900;SDS011;6518;50.930;5.344;2023-10-08T03:09:14;9.15;;;3.80;;
12900;SDS011;6518;50.930;5.344;2023-10-08T03:11:46;5.47;;;3.67;;
12900;SDS011;6518;50.930;5.344;2023-10-08T03:14:13;7.15;;;3.60;;
12900;SDS011;6518;50.930;5.344;2023-10-08T03:16:47;8.85;;;3.97;;
12900;SDS011;6518;50.930;5.344;2023-10-08T03:19:17;6.65;;;3.65;;
12900;SDS011;6518;50.930;5.344;2023-10-08T03:21:45;6.30;;;3.60;;
12900;SDS011;6518;50.930;5.344;2023-10-08T03:24:16;8.13;;;3.63;;
12900;SDS011;6518;50.930;5.344;2023-10-08T03:27:02;5.57;;;3.42;;
12900;SDS011;6518;50.930;5.344;2023-10-08T03:29:37;8.70;;;3.85;;
12900;SDS011;6518;50.930;5.344;2023-10-08T03:32:07;6.03;;;3.40;;
12900;SDS011;6518;50.930;5.344;2023-10-08T03:34:39;5.22;;;3.58;;
12900;SDS011;6518;50.930;5.344;2023-10-08T03:37:11;10.10;;;3.95;;
12900;SDS011;6518;50.930;5.344;2023-10-08T03:39:45;9.13;;;3.47;;
12900;SDS011;6518;50.930;5.344;2023-10-08T03:42:25;9.60;;;4.07;;
12900;SDS011;6518;50.930;5.344;2023-10-08T03:44:58;6.25;;;3.60;;
12900;SDS011;6518;50.930;5.344;2023-10-08T03:47:35;6.80;;;3.33;;
12900;SDS011;6518;50.930;5.344;2023-10-08T03:50:05;5.50;;;3.45;;
12900;SDS011;6518;50.930;5.344;2023-10-08T03:52:34;6.57;;;3.45;;
12900;SDS011;6518;50.930;5.344;2023-10-08T03:55:04;5.10;;;3.20;;
12900;SDS011;6518;50.930;5.344;2023-10-08T03:57:45;6.88;;;3.70;;
12900;SDS011;6518;50.930;5.344;2023-10-08T04:00:22;5.75;;;3.60;;
12900;SDS011;6518;50.930;5.344;2023-10-08T04:02:56;6.50;;;3.42;;
12900;SDS011;6518;50.930;5.344;2023-10-08T04:05:27;4.97;;;3.33;;
12900;SDS011;6518;50.930;5.344;2023-10-08T04:08:05;6.15;;;3.30;;
12900;SDS011;6518;50.930;5.344;2023-10-08T04:10:44;6.65;;;3.22;;
12900;SDS011;6518;50.930;5.344;2023-10-08T04:13:29;5.78;;;3.30;;
12900;SDS011;6518;50.930;5.344;2023-10-08T04:15:56;10.95;;;3.58;;
12900;SDS011;6518;50.930;5.344;2023-10-08T04:18:23;5.72;;;3.38;;
12900;SDS011;6518;50.930;5.344;2023-10-08T04:20:51;5.28;;;3.15;;
12900;SDS011;6518;50.930;5.344;2023-10-08T04:23:30;6.07;;;3.83;;
12900;SDS011;6518;50.930;5.344;2023-10-08T04:25:57;5.93;;;3.55;;
12900;SDS011;6518;50.930;5.344;2023-10-08T04:28:24;4.50;;;3.10;;
12900;SDS011;6518;50.930;5.344;2023-10-08T04:30:53;8.68;;;3.65;;
12900;SDS011;6518;50.930;5.344;2023-10-08T04:33:27;7.43;;;4.38;;
12900;SDS011;6518;50.930;5.344;2023-10-08T04:36:00;7.03;;;3.65;;
12900;SDS011;6518;50.930;5.344;2023-10-08T04:38:28;7.80;;;3.60;;
12900;SDS011;6518;50.930;5.344;2023-10-08T04:41:02;6.53;;;3.60;;
12900;SDS011;6518;50.930;5.344;2023-10-08T04:43:34;6.60;;;4.13;;
12900;SDS011;6518;50.930;5.344;2023-10-08T04:46:04;5.55;;;3.50;;
12900;SDS011;6518;50.930;5.344;2023-10-08T04:48:44;9.48;;;3.95;;
12900;SDS011;6518;50.930;5.344;2023-10-08T04:51:12;6.68;;;3.88;;
12900;SDS011;6518;50.930;5.344;2023-10-08T04:53:39;4.95;;;3.70;;
12900;SDS011;6518;50.930;5.344;2023-10-08T04:56:10;7.03;;;3.70;;
12900;SDS011;6518;50.930;5.344;2023-10-08T04:58:42;9.38;;;3.92;;
12900;SDS011;6518;50.930;5.344;2023-10-08T05:01:12;6.70;;;3.78;;
12900;SDS011;6518;50.930;5.344;2023-10-08T05:03:46;5.18;;;3.47;;
12900;SDS011;6518;50.930;5.344;2023-10-08T05:06:33;5.47;;;3.60;;
12900;SDS011;6518;50.930;5.344;2023-10-08T05:09:26;7.63;;;4.00;;
12900;SDS011;6518;50.930;5.344;2023-10-08T05:12:06;5.63;;;3.75;;
12900;SDS011;6518;50.930;5.344;2023-10-08T05:14:54;7.30;;;3.88;;
12900;SDS011;6518;50.930;5.344;2023-10-08T05:17:47;9.63;;;4.15;;
12900;SDS011;6518;50.930;5.344;2023-10-08T05:20:23;9.48;;;4.60;;
12900;SDS011;6518;50.930;5.344;2023-10-08T05:23:09;8.38;;;4.38;;
12900;SDS011;6518;50.930;5.344;2023-10-08T05:25:46;9.00;;;4.20;;
12900;SDS011;6518;50.930;5.344;2023-10-08T05:28:23;7.82;;;4.60;;
12900;SDS011;6518;50.930;5.344;2023-10-08T05:30:50;6.65;;;4.50;;
12900;SDS011;6518;50.930;5.344;2023-10-08T05:33:19;10.10;;;4.78;;
12900;SDS011;6518;50.930;5.344;2023-10-08T05:36:03;7.15;;;3.90;;
12900;SDS011;6518;50.930;5.344;2023-10-08T05:38:37;5.97;;;3.72;;
12900;SDS011;6518;50.930;5.344;2023-10-08T05:41:13;6.95;;;4.47;;
12900;SDS011;6518;50.930;5.344;2023-10-08T05:43:56;7.63;;;4.22;;
12900;SDS011;6518;50.930;5.344;2023-10-08T05:46:36;8.60;;;4.28;;
12900;SDS011;6518;50.930;5.344;2023-10-08T05:49:16;10.75;;;4.57;;
12900;SDS011;6518;50.930;5.344;2023-10-08T05:52:03;7.28;;;4.60;;
12900;SDS011;6518;50.930;5.344;2023-10-08T05:54:51;9.98;;;4.45;;
12900;SDS011;6518;50.930;5.344;2023-10-08T05:57:39;6.90;;;4.10;;
12900;SDS011;6518;50.930;5.344;2023-10-08T06:00:12;5.97;;;4.20;;
12900;SDS011;6518;50.930;5.344;2023-10-08T06:02:57;8.02;;;3.85;;
12900;SDS011;6518;50.930;5.344;2023-10-08T06:05:35;8.15;;;4.35;;
12900;SDS011;6518;50.930;5.344;2023-10-08T06:08:11;7.68;;;4.03;;
12900;SDS011;6518;50.930;5.344;2023-10-08T06:10:41;10.45;;;4.38;;
12900;SDS011;6518;50.930;5.344;2023-10-08T06:13:09;8.52;;;4.00;;
12900;SDS011;6518;50.930;5.344;2023-10-08T06:15:42;9.27;;;4.70;;
12900;SDS011;6518;50.930;5.344;2023-10-08T06:18:13;7.88;;;4.60;;
12900;SDS011;6518;50.930;5.344;2023-10-08T06:20:40;9.85;;;4.28;;
12900;SDS011;6518;50.930;5.344;2023-10-08T06:23:08;8.70;;;4.53;;
12900;SDS011;6518;50.930;5.344;2023-10-08T06:25:38;9.93;;;4.65;;
12900;SDS011;6518;50.930;5.344;2023-10-08T06:28:13;7.90;;;3.83;;
12900;SDS011;6518;50.930;5.344;2023-10-08T06:30:44;8.68;;;4.88;;
12900;SDS011;6518;50.930;5.344;2023-10-08T06:33:11;7.00;;;4.25;;
12900;SDS011;6518;50.930;5.344;2023-10-08T06:35:38;6.38;;;3.92;;
12900;SDS011;6518;50.930;5.344;2023-10-08T06:38:09;6.28;;;3.92;;
12900;SDS011;6518;50.930;5.344;2023-10-08T06:40:40;9.35;;;4.85;;
12900;SDS011;6518;50.930;5.344;2023-10-08T06:43:08;8.20;;;4.30;;
12900;SDS011;6518;50.930;5.344;2023-10-08T06:45:44;7.82;;;4.80;;
12900;SDS011;6518;50.930;5.344;2023-10-08T06:48:13;7.05;;;4.30;;
12900;SDS011;6518;50.930;5.344;2023-10-08T06:50:45;7.18;;;4.50;;
12900;SDS011;6518;50.930;5.344;2023-10-08T06:53:13;14.43;;;4.55;;
12900;SDS011;6518;50.930;5.344;2023-10-08T06:55:40;6.18;;;4.35;;
12900;SDS011;6518;50.930;5.344;2023-10-08T06:58:07;10.52;;;4.60;;
12900;SDS011;6518;50.930;5.344;2023-10-08T07:00:36;7.82;;;4.70;;
12900;SDS011;6518;50.930;5.344;2023-10-08T07:03:06;7.50;;;4.50;;
12900;SDS011;6518;50.930;5.344;2023-10-08T07:05:36;10.20;;;5.20;;
12900;SDS011;6518;50.930;5.344;2023-10-08T07:08:06;8.90;;;4.55;;
12900;SDS011;6518;50.930;5.344;2023-10-08T07:10:34;9.30;;;4.80;;
12900;SDS011;6518;50.930;5.344;2023-10-08T07:13:01;6.95;;;4.75;;
12900;SDS011;6518;50.930;5.344;2023-10-08T07:15:29;8.38;;;4.50;;
12900;SDS011;6518;50.930;5.344;2023-10-08T07:17:57;6.18;;;4.35;;
12900;SDS011;6518;50.930;5.344;2023-10-08T07:20:35;8.40;;;4.25;;
12900;SDS011;6518;50.930;5.344;2023-10-08T07:23:05;10.27;;;4.53;;
12900;SDS011;6518;50.930;5.344;2023-10-08T07:25:44;7.70;;;4.68;;
12900;SDS011;6518;50.930;5.344;2023-10-08T07:28:19;12.52;;;5.57;;
12900;SDS011;6518;50.930;5.344;2023-10-08T07:30:46;18.15;;;6.38;;
12900;SDS011;6518;50.930;5.344;2023-10-08T07:33:15;14.55;;;4.90;;
12900;SDS011;6518;50.930;5.344;2023-10-08T07:35:46;11.15;;;5.00;;
12900;SDS011;6518;50.930;5.344;2023-10-08T07:38:22;10.18;;;4.75;;
12900;SDS011;6518;50.930;5.344;2023-10-08T07:40:52;6.95;;;4.18;;
12900;SDS011;6518;50.930;5.344;2023-10-08T07:43:20;10.40;;;5.15;;
12900;SDS011;6518;50.930;5.344;2023-10-08T07:45:47;8.50;;;4.47;;
12900;SDS011;6518;50.930;5.344;2023-10-08T07:48:14;8.43;;;4.60;;
12900;SDS011;6518;50.930;5.344;2023-10-08T07:50:42;7.03;;;4.53;;
12900;SDS011;6518;50.930;5.344;2023-10-08T07:53:12;9.13;;;4.45;;
12900;SDS011;6518;50.930;5.344;2023-10-08T07:55:44;6.93;;;4.22;;
12900;SDS011;6518;50.930;5.344;2023-10-08T07:58:13;9.00;;;5.00;;
12900;SDS011;6518;50.930;5.344;2023-10-08T08:00:41;8.85;;;4.72;;
12900;SDS011;6518;50.930;5.344;2023-10-08T08:03:17;8.50;;;4.38;;
12900;SDS011;6518;50.930;5.344;2023-10-08T08:05:47;11.15;;;4.65;;
12900;SDS011;6518;50.930;5.344;2023-10-08T08:08:20;7.72;;;4.43;;
12900;SDS011;6518;50.930;5.344;2023-10-08T08:10:48;7.82;;;4.38;;
12900;SDS011;6518;50.930;5.344;2023-10-08T08:13:23;7.78;;;4.60;;
12900;SDS011;6518;50.930;5.344;2023-10-08T08:15:54;10.95;;;5.22;;
12900;SDS011;6518;50.930;5.344;2023-10-08T08:18:24;7.20;;;4.43;;
12900;SDS011;6518;50.930;5.344;2023-10-08T08:20:58;6.35;;;4.40;;
12900;SDS011;6518;50.930;5.344;2023-10-08T08:23:29;8.48;;;4.60;;
12900;SDS011;6518;50.930;5.344;2023-10-08T08:25:57;9.40;;;5.03;;
12900;SDS011;6518;50.930;5.344;2023-10-08T08:28:37;7.28;;;4.65;;
12900;SDS011;6518;50.930;5.344;2023-10-08T08:31:05;10.20;;;4.10;;
12900;SDS011;6518;50.930;5.344;2023-10-08T08:33:39;9.02;;;4.53;;
12900;SDS011;6518;50.930;5.344;2023-10-08T08:36:23;8.57;;;4.82;;
12900;SDS011;6518;50.930;5.344;2023-10-08T08:38:52;8.10;;;4.80;;
12900;SDS011;6518;50.930;5.344;2023-10-08T08:41:19;10.35;;;5.07;;
12900;SDS011;6518;50.930;5.344;2023-10-08T08:43:48;10.27;;;5.63;;
12900;SDS011;6518;50.930;5.344;2023-10-08T08:46:22;9.70;;;5.18;;
12900;SDS011;6518;50.930;5.344;2023-10-08T08:48:54;10.23;;;5.05;;
12900;SDS011;6518;50.930;5.344;2023-10-08T08:51:23;10.93;;;5.68;;
12900;SDS011;6518;50.930;5.344;2023-10-08T08:53:52;13.57;;;5.28;;
12900;SDS011;6518;50.930;5.344;2023-10-08T08:56:19;10.07;;;5.25;;
12900;SDS011;6518;50.930;5.344;2023-10-08T08:58:48;8.63;;;4.80;;
12900;SDS011;6518;50.930;5.344;2023-10-08T09:01:16;11.80;;;7.68;;
12900;SDS011;6518;50.930;5.344;2023-10-08T09:03:44;10.70;;;5.95;;
12900;SDS011;6518;50.930;5.344;2023-10-08T09:06:13;13.45;;;5.82;;
12900;SDS011;6518;50.930;5.344;2023-10-08T09:08:40;9.85;;;5.28;;
12900;SDS011;6518;50.930;5.344;2023-10-08T09:11:14;12.65;;;6.03;;
12900;SDS011;6518;50.930;5.344;2023-10-08T09:13:42;10.90;;;6.00;;
12900;SDS011;6518;50.930;5.344;2023-10-08T09:16:11;11.27;;;5.97;;
12900;SDS011;6518;50.930;5.344;2023-10-08T09:18:41;10.95;;;5.43;;
12900;SDS011;6518;50.930;5.344;2023-10-08T09:21:16;13.88;;;7.30;;
12900;SDS011;6518;50.930;5.344;2023-10-08T09:23:50;16.00;;;6.40;;
12900;SDS011;6518;50.930;5.344;2023-10-08T09:26:23;12.50;;;6.82;;
12900;SDS011;6518;50.930;5.344;2023-10-08T09:28:52;13.00;;;7.00;;
12900;SDS011;6518;50.930;5.344;2023-10-08T09:31:22;13.32;;;6.70;;
12900;SDS011;6518;50.930;5.344;2023-10-08T09:33:53;12.32;;;6.18;;
12900;SDS011;6518;50.930;5.344;2023-10-08T09:36:20;13.65;;;7.05;;
12900;SDS011;6518;50.930;5.344;2023-10-08T09:38:57;14.95;;;7.13;;
12900;SDS011;6518;50.930;5.344;2023-10-08T09:41:28;13.93;;;8.40;;
12900;SDS011;6518;50.930;5.344;2023-10-08T09:43:56;13.68;;;6.93;;
12900;SDS011;6518;50.930;5.344;2023-10-08T09:46:25;13.52;;;7.13;;
12900;SDS011;6518;50.930;5.344;2023-10-08T09:48:58;11.35;;;6.53;;
12900;SDS011;6518;50.930;5.344;2023-10-08T09:51:32;15.75;;;7.60;;
12900;SDS011;6518;50.930;5.344;2023-10-08T09:54:05;13.50;;;7.18;;
12900;SDS011;6518;50.930;5.344;2023-10-08T09:56:40;11.60;;;6.88;;
12900;SDS011;6518;50.930;5.344;2023-10-08T09:59:09;12.68;;;7.00;;
12900;SDS011;6518;50.930;5.344;2023-10-08T10:01:36;13.73;;;7.05;;
12900;SDS011;6518;50.930;5.344;2023-10-08T10:04:08;17.25;;;7.65;;
12900;SDS011;6518;50.930;5.344;2023-10-08T10:06:37;14.18;;;7.10;;
12900;SDS011;6518;50.930;5.344;2023-10-08T10:09:05;10.57;;;7.43;;
12900;SDS011;6518;50.930;5.344;2023-10-08T10:11:42;13.98;;;7.43;;
12900;SDS011;6518;50.930;5.344;2023-10-08T10:14:14;12.10;;;7.00;;
12900;SDS011;6518;50.930;5.344;2023-10-08T10:16:43;12.10;;;7.43;;
12900;SDS011;6518;50.930;5.344;2023-10-08T10:19:16;14.90;;;6.90;;
12900;SDS011;6518;50.930;5.344;2023-10-08T10:21:43;14.45;;;7.43;;
12900;SDS011;6518;50.930;5.344;2023-10-08T10:24:21;13.82;;;6.80;;
12900;SDS011;6518;50.930;5.344;2023-10-08T10:26:51;11.75;;;7.45;;
12900;SDS011;6518;50.930;5.344;2023-10-08T10:29:36;12.70;;;7.07;;
12900;SDS011;6518;50.930;5.344;2023-10-08T10:32:03;12.02;;;7.05;;
12900;SDS011;6518;50.930;5.344;2023-10-08T10:34:30;16.08;;;7.70;;
12900;SDS011;6518;50.930;5.344;2023-10-08T10:37:00;13.00;;;7.75;;
12900;SDS011;6518;50.930;5.344;2023-10-08T10:39:34;14.13;;;7.32;;
12900;SDS011;6518;50.930;5.344;2023-10-08T10:42:06;12.65;;;7.63;;
12900;SDS011;6518;50.930;5.344;2023-10-08T10:44:46;18.88;;;9.32;;
12900;SDS011;6518;50.930;5.344;2023-10-08T10:47:15;15.82;;;7.85;;
12900;SDS011;6518;50.930;5.344;2023-10-08T10:49:54;16.50;;;7.60;;
12900;SDS011;6518;50.930;5.344;2023-10-08T10:52:49;13.60;;;7.38;;
12900;SDS011;6518;50.930;5.344;2023-10-08T10:55:18;14.70;;;8.68;;
12900;SDS011;6518;50.930;5.344;2023-10-08T10:57:56;21.38;;;14.43;;
12900;SDS011;6518;50.930;5.344;2023-10-08T11:00:29;14.05;;;7.60;;
12900;SDS011;6518;50.930;5.344;2023-10-08T11:03:22;11.85;;;7.13;;
12900;SDS011;6518;50.930;5.344;2023-10-08T11:05:56;11.45;;;6.97;;
12900;SDS011;6518;50.930;5.344;2023-10-08T11:08:32;14.82;;;6.95;;
12900;SDS011;6518;50.930;5.344;2023-10-08T11:11:00;12.23;;;6.57;;
12900;SDS011;6518;50.930;5.344;2023-10-08T11:13:32;14.00;;;7.47;;
12900;SDS011;6518;50.930;5.344;2023-10-08T11:16:04;13.10;;;6.95;;
12900;SDS011;6518;50.930;5.344;2023-10-08T11:18:32;15.60;;;6.25;;
12900;SDS011;6518;50.930;5.344;2023-10-08T11:21:05;15.00;;;6.88;;
12900;SDS011;6518;50.930;5.344;2023-10-08T11:23:45;14.93;;;6.65;;
12900;SDS011;6518;50.930;5.344;2023-10-08T11:26:18;11.50;;;6.45;;
12900;SDS011;6518;50.930;5.344;2023-10-08T11:28:46;12.85;;;6.45;;
12900;SDS011;6518;50.930;5.344;2023-10-08T11:31:14;11.60;;;6.35;;
12900;SDS011;6518;50.930;5.344;2023-10-08T11:33:45;11.05;;;6.65;;
12900;SDS011;6518;50.930;5.344;2023-10-08T11:36:19;13.25;;;6.45;;
12900;SDS011;6518;50.930;5.344;2023-10-08T11:38:54;11.38;;;6.25;;
12900;SDS011;6518;50.930;5.344;2023-10-08T11:41:26;14.93;;;6.85;;
12900;SDS011;6518;50.930;5.344;2023-10-08T11:43:55;13.73;;;6.82;;
12900;SDS011;6518;50.930;5.344;2023-10-08T11:46:24;16.52;;;7.00;;
12900;SDS011;6518;50.930;5.344;2023-10-08T11:48:53;11.02;;;6.30;;
12900;SDS011;6518;50.930;5.344;2023-10-08T11:51:23;14.93;;;6.70;;
12900;SDS011;6518;50.930;5.344;2023-10-08T11:53:50;14.02;;;6.38;;
12900;SDS011;6518;50.930;5.344;2023-10-08T11:56:20;14.02;;;7.30;;
12900;SDS011;6518;50.930;5.344;2023-10-08T11:58:48;13.10;;;7.25;;
12900;SDS011;6518;50.930;5.344;2023-10-08T12:01:17;12.73;;;6.55;;
12900;SDS011;6518;50.930;5.344;2023-10-08T12:03:45;18.13;;;6.40;;
12900;SDS011;6518;50.930;5.344;2023-10-08T12:06:15;8.98;;;6.32;;
12900;SDS011;6518;50.930;5.344;2023-10-08T12:08:43;11.82;;;6.53;;
12900;SDS011;6518;50.930;5.344;2023-10-08T12:11:14;16.73;;;7.10;;
12900;SDS011;6518;50.930;5.344;2023-10-08T12:13:43;12.05;;;7.25;;
12900;SDS011;6518;50.930;5.344;2023-10-08T12:16:13;11.60;;;6.35;;
12900;SDS011;6518;50.930;5.344;2023-10-08T12:18:46;12.98;;;6.85;;
12900;SDS011;6518;50.930;5.344;2023-10-08T12:21:23;12.93;;;6.22;;
12900;SDS011;6518;50.930;5.344;2023-10-08T12:23:51;11.52;;;6.07;;
12900;SDS011;6518;50.930;5.344;2023-10-08T12:26:20;12.48;;;6.07;;
12900;SDS011;6518;50.930;5.344;2023-10-08T12:28:48;9.48;;;5.85;;
12900;SDS011;6518;50.930;5.344;2023-10-08T12:31:15;14.18;;;6.15;;
12900;SDS011;6518;50.930;5.344;2023-10-08T12:33:47;14.65;;;5.80;;
12900;SDS011;6518;50.930;5.344;2023-10-08T12:36:14;14.60;;;6.68;;
12900;SDS011;6518;50.930;5.344;2023-10-08T12:38:42;12.50;;;6.20;;
12900;SDS011;6518;50.930;5.344;2023-10-08T12:41:10;17.38;;;6.97;;
12900;SDS011;6518;50.930;5.344;2023-10-08T12:43:42;14.23;;;6.45;;
12900;SDS011;6518;50.930;5.344;2023-10-08T12:46:12;13.40;;;6.03;;
12900;SDS011;6518;50.930;5.344;2023-10-08T12:48:44;12.88;;;5.43;;
12900;SDS011;6518;50.930;5.344;2023-10-08T12:51:13;12.40;;;6.13;;
12900;SDS011;6518;50.930;5.344;2023-10-08T12:53:41;10.18;;;5.60;;
12900;SDS011;6518;50.930;5.344;2023-10-08T12:56:15;13.63;;;7.28;;
12900;SDS011;6518;50.930;5.344;2023-10-08T12:58:47;14.35;;;6.63;;
12900;SDS011;6518;50.930;5.344;2023-10-08T13:01:20;12.65;;;6.93;;
12900;SDS011;6518;50.930;5.344;2023-10-08T13:03:48;11.45;;;6.38;;
12900;SDS011;6518;50.930;5.344;2023-10-08T13:06:19;11.90;;;5.82;;
12900;SDS011;6518;50.930;5.344;2023-10-08T13:08:48;13.43;;;5.63;;
12900;SDS011;6518;50.930;5.344;2023-10-08T13:11:17;10.07;;;5.50;;
12900;SDS011;6518;50.930;5.344;2023-10-08T13:13:48;11.35;;;5.65;;
12900;SDS011;6518;50.930;5.344;2023-10-08T13:16:16;11.27;;;5.40;;
12900;SDS011;6518;50.930;5.344;2023-10-08T13:18:45;12.45;;;5.53;;
12900;SDS011;6518;50.930;5.344;2023-10-08T13:21:11;13.45;;;5.75;;
12900;SDS011;6518;50.930;5.344;2023-10-08T13:23:38;15.43;;;5.43;;
12900;SDS011;6518;50.930;5.344;2023-10-08T13:26:06;11.80;;;5.72;;
12900;SDS011;6518;50.930;5.344;2023-10-08T13:28:33;11.30;;;5.18;;
12900;SDS011;6518;50.930;5.344;2023-10-08T13:31:01;12.05;;;5.43;;
12900;SDS011;6518;50.930;5.344;2023-10-08T13:33:35;12.43;;;5.72;;
12900;SDS011;6518;50.930;5.344;2023-10-08T13:36:05;14.65;;;6.05;;
12900;SDS011;6518;50.930;5.344;2023-10-08T13:38:36;11.10;;;5.60;;
12900;SDS011;6518;50.930;5.344;2023-10-08T13:41:06;11.50;;;5.50;;
12900;SDS011;6518;50.930;5.344;2023-10-08T13:43:40;9.48;;;5.40;;
12900;SDS011;6518;50.930;5.344;2023-10-08T13:46:10;12.45;;;5.97;;
12900;SDS011;6518;50.930;5.344;2023-10-08T13:48:39;13.13;;;5.70;;
12900;SDS011;6518;50.930;5.344;2023-10-08T13:51:08;16.35;;;5.72;;
12900;SDS011;6518;50.930;5.344;2023-10-08T13:53:39;11.43;;;5.35;;
12900;SDS011;6518;50.930;5.344;2023-10-08T13:56:10;12.73;;;5.00;;
12900;SDS011;6518;50.930;5.344;2023-10-08T13:58:37;13.23;;;5.10;;
12900;SDS011;6518;50.930;5.344;2023-10-08T14:01:11;12.88;;;6.13;;
12900;SDS011;6518;50.930;5.344;2023-10-08T14:03:45;12.63;;;5.50;;
12900;SDS011;6518;50.930;5.344;2023-10-08T14:06:14;16.35;;;6.30;;
12900;SDS011;6518;50.930;5.344;2023-10-08T14:08:42;11.05;;;5.47;;
12900;SDS011;6518;50.930;5.344;2023-10-08T14:11:16;10.45;;;5.38;;
12900;SDS011;6518;50.930;5.344;2023-10-08T14:13:44;10.77;;;5.15;;
12900;SDS011;6518;50.930;5.344;2023-10-08T14:16:12;10.52;;;4.80;;
12900;SDS011;6518;50.930;5.344;2023-10-08T14:18:42;12.73;;;5.47;;
12900;SDS011;6518;50.930;5.344;2023-10-08T14:21:17;10.45;;;5.00;;
12900;SDS011;6518;50.930;5.344;2023-10-08T14:23:44;11.52;;;5.15;;
12900;SDS011;6518;50.930;5.344;2023-10-08T14:26:12;12.15;;;5.47;;
12900;SDS011;6518;50.930;5.344;2023-10-08T14:28:40;11.57;;;5.47;;
12900;SDS011;6518;50.930;5.344;2023-10-08T14:31:09;12.00;;;5.75;;
12900;SDS011;6518;50.930;5.344;2023-10-08T14:33:41;10.13;;;4.85;;
12900;SDS011;6518;50.930;5.344;2023-10-08T14:36:22;12.38;;;5.65;;
12900;SDS011;6518;50.930;5.344;2023-10-08T14:39:07;12.40;;;5.22;;
12900;SDS011;6518;50.930;5.344;2023-10-08T14:41:51;12.02;;;5.20;;
12900;SDS011;6518;50.930;5.344;2023-10-08T14:44:36;10.63;;;4.93;;
12900;SDS011;6518;50.930;5.344;2023-10-08T14:47:03;11.32;;;5.20;;
12900;SDS011;6518;50.930;5.344;2023-10-08T14:49:30;12.15;;;5.22;;
12900;SDS011;6518;50.930;5.344;2023-10-08T14:51:59;13.65;;;5.50;;
12900;SDS011;6518;50.930;5.344;2023-10-08T14:54:29;10.43;;;5.45;;
12900;SDS011;6518;50.930;5.344;2023-10-08T14:56:58;11.85;;;5.90;;
12900;SDS011;6518;50.930;5.344;2023-10-08T14:59:27;14.77;;;5.78;;
12900;SDS011;6518;50.930;5.344;2023-10-08T15:01:55;10.00;;;4.80;;
12900;SDS011;6518;50.930;5.344;2023-10-08T15:04:23;11.38;;;5.53;;
12900;SDS011;6518;50.930;5.344;2023-10-08T15:06:51;13.38;;;5.80;;
12900;SDS011;6518;50.930;5.344;2023-10-08T15:09:19;15.38;;;5.97;;
12900;SDS011;6518;50.930;5.344;2023-10-08T15:11:49;11.43;;;5.22;;
12900;SDS011;6518;50.930;5.344;2023-10-08T15:14:17;11.57;;;5.85;;
12900;SDS011;6518;50.930;5.344;2023-10-08T15:16:45;11.15;;;5.95;;
12900;SDS011;6518;50.930;5.344;2023-10-08T15:19:17;12.73;;;5.25;;
12900;SDS011;6518;50.930;5.344;2023-10-08T15:21:44;10.40;;;5.63;;
12900;SDS011;6518;50.930;5.344;2023-10-08T15:24:16;14.93;;;6.40;;